sensor_id;sensor_type;location;lat;lon;timestamp;pressure;altitude;pressure_sealevel;temperature;humidity
45357;BME280;31092;51.924;21.448;2023-05-23T00:00:22;100300.69;;;7.86;100.00
45357;BME280;31092;51.924;21.448;2023-05-23T00:02:47;100303.38;;;7.86;100.00
45357;BME280;31092;51.924;21.448;2023-05-23T00:05:13;100311.25;;;7.88;100.00
45357;BME280;31092;51.924;21.448;2023-05-23T00:07:39;100300.53;;;7.88;100.00
45357;BME280;31092;51.924;21.448;2023-05-23T00:10:05;100307.56;;;7.89;100.00
45357;BME280;31092;51.924;21.448;2023-05-23T00:12:30;100299.81;;;7.86;100.00
45357;BME280;31092;51.924;21.448;2023-05-23T00:14:57;100298.31;;;7.83;100.00
45357;BME280;31092;51.924;21.448;2023-05-23T00:17:22;100298.72;;;7.79;100.00
45357;BME280;31092;51.924;21.448;2023-05-23T00:19:49;100295.47;;;7.75;100.00
45357;BME280;31092;51.924;21.448;2023-05-23T00:22:14;100302.00;;;7.73;100.00
45357;BME280;31092;51.924;21.448;2023-05-23T00:24:40;100288.59;;;7.73;100.00
45357;BME280;31092;51.924;21.448;2023-05-23T00:27:06;100292.25;;;7.72;100.00
45357;BME280;31092;51.924;21.448;2023-05-23T00:29:31;100287.88;;;7.71;100.00
45357;BME280;31092;51.924;21.448;2023-05-23T00:31:56;100294.25;;;7.70;100.00
45357;BME280;31092;51.924;21.448;2023-05-23T00:34:22;100290.56;;;7.71;100.00
45357;BME280;31092;51.924;21.448;2023-05-23T00:36:47;100288.59;;;7.73;100.00
45357;BME280;31092;51.924;21.448;2023-05-23T00:39:14;100282.53;;;7.71;100.00
45357;BME280;31092;51.924;21.448;2023-05-23T00:41:44;100290.56;;;7.71;100.00
45357;BME280;31092;51.924;21.448;2023-05-23T00:44:10;100293.13;;;7.72;100.00
45357;BME280;31092;51.924;21.448;2023-05-23T00:46:35;100293.69;;;7.76;100.00
45357;BME280;31092;51.924;21.448;2023-05-23T00:49:01;100290.13;;;7.75;100.00
45357;BME280;31092;51.924;21.448;2023-05-23T00:51:26;100292.81;;;7.75;100.00
45357;BME280;31092;51.924;21.448;2023-05-23T00:53:52;100295.47;;;7.75;100.00
45357;BME280;31092;51.924;21.448;2023-05-23T00:56:18;100291.97;;;7.75;100.00
45357;BME280;31092;51.924;21.448;2023-05-23T00:58:43;100296.19;;;7.77;100.00
45357;BME280;31092;51.924;21.448;2023-05-23T01:01:09;100295.06;;;7.80;100.00
45357;BME280;31092;51.924;21.448;2023-05-23T01:03:34;100295.91;;;7.80;100.00
45357;BME280;31092;51.924;21.448;2023-05-23T01:06:00;100292.09;;;7.83;100.00
45357;BME280;31092;51.924;21.448;2023-05-23T01:08:27;100295.47;;;7.85;100.00
45357;BME280;31092;51.924;21.448;2023-05-23T01:10:53;100285.56;;;7.85;100.00
45357;BME280;31092;51.924;21.448;2023-05-23T01:13:39;100287.56;;;7.83;100.00
45357;BME280;31092;51.924;21.448;2023-05-23T01:16:07;100290.25;;;7.83;100.00
45357;BME280;31092;51.924;21.448;2023-05-23T01:18:36;100291.22;;;7.82;100.00
45357;BME280;31092;51.924;21.448;2023-05-23T01:21:02;100292.50;;;7.78;100.00
45357;BME280;31092;51.924;21.448;2023-05-23T01:26:30;100293.81;;;7.74;100.00
45357;BME280;31092;51.924;21.448;2023-05-23T01:29:03;100286.88;;;7.72;100.00
45357;BME280;31092;51.924;21.448;2023-05-23T01:31:34;100291.69;;;7.68;100.00
45357;BME280;31092;51.924;21.448;2023-05-23T01:34:01;100289.47;;;7.63;100.00
45357;BME280;31092;51.924;21.448;2023-05-23T01:36:26;100294.28;;;7.60;100.00
45357;BME280;31092;51.924;21.448;2023-05-23T01:38:52;100282.16;;;7.56;100.00
45357;BME280;31092;51.924;21.448;2023-05-23T01:41:17;100284.28;;;7.52;100.00
45357;BME280;31092;51.924;21.448;2023-05-23T01:43:43;100284.72;;;7.48;100.00
45357;BME280;31092;51.924;21.448;2023-05-23T01:46:08;100281.47;;;7.44;100.00
45357;BME280;31092;51.924;21.448;2023-05-23T01:48:34;100282.59;;;7.41;100.00
45357;BME280;31092;51.924;21.448;2023-05-23T01:51:00;100282.06;;;7.38;100.00
45357;BME280;31092;51.924;21.448;2023-05-23T01:53:26;100284.88;;;7.36;100.00
45357;BME280;31092;51.924;21.448;2023-05-23T01:55:51;100277.97;;;7.34;100.00
45357;BME280;31092;51.924;21.448;2023-05-23T01:58:17;100278.09;;;7.32;100.00
45357;BME280;31092;51.924;21.448;2023-05-23T02:00:43;100275.59;;;7.31;100.00
45357;BME280;31092;51.924;21.448;2023-05-23T02:03:08;100284.63;;;7.30;100.00
45357;BME280;31092;51.924;21.448;2023-05-23T02:05:35;100278.38;;;7.29;100.00
45357;BME280;31092;51.924;21.448;2023-05-23T02:08:00;100273.03;;;7.29;100.00
45357;BME280;31092;51.924;21.448;2023-05-23T02:10:26;100273.91;;;7.30;100.00
45357;BME280;31092;51.924;21.448;2023-05-23T02:12:51;100270.50;;;7.28;100.00
45357;BME280;31092;51.924;21.448;2023-05-23T02:15:16;100265.44;;;7.25;100.00
45357;BME280;31092;51.924;21.448;2023-05-23T02:17:42;100265.59;;;7.23;100.00
45357;BME280;31092;51.924;21.448;2023-05-23T02:20:07;100267.44;;;7.23;100.00
45357;BME280;31092;51.924;21.448;2023-05-23T02:22:34;100261.34;;;7.20;100.00
45357;BME280;31092;51.924;21.448;2023-05-23T02:24:59;100266.88;;;7.19;100.00
45357;BME280;31092;51.924;21.448;2023-05-23T02:27:24;100262.34;;;7.19;100.00
45357;BME280;31092;51.924;21.448;2023-05-23T02:29:50;100261.34;;;7.20;100.00
45357;BME280;31092;51.924;21.448;2023-05-23T02:32:15;100262.34;;;7.19;100.00
45357;BME280;31092;51.924;21.448;2023-05-23T02:34:40;100259.69;;;7.19;100.00
45357;BME280;31092;51.924;21.448;2023-05-23T02:37:06;100264.03;;;7.20;100.00
45357;BME280;31092;51.924;21.448;2023-05-23T02:39:33;100264.88;;;7.21;100.00
45357;BME280;31092;51.924;21.448;2023-05-23T02:41:59;100256.56;;;7.24;100.00
45357;BME280;31092;51.924;21.448;2023-05-23T02:44:24;100258.41;;;7.24;100.00
45357;BME280;31092;51.924;21.448;2023-05-23T02:46:49;100255.56;;;7.25;100.00
45357;BME280;31092;51.924;21.448;2023-05-23T02:49:15;100248.34;;;7.26;100.00
45357;BME280;31092;51.924;21.448;2023-05-23T02:51:40;100249.06;;;7.28;100.00
45357;BME280;31092;51.924;21.448;2023-05-23T02:54:05;100249.50;;;7.33;100.00
45357;BME280;31092;51.924;21.448;2023-05-23T02:56:31;100242.84;;;7.37;100.00
45357;BME280;31092;51.924;21.448;2023-05-23T02:58:56;100243.25;;;7.42;100.00
45357;BME280;31092;51.924;21.448;2023-05-23T03:01:21;100249.03;;;7.47;100.00
45357;BME280;31092;51.924;21.448;2023-05-23T03:03:47;100250.28;;;7.53;100.00
45357;BME280;31092;51.924;21.448;2023-05-23T03:06:12;100248.03;;;7.58;100.00
45357;BME280;31092;51.924;21.448;2023-05-23T03:08:41;100241.38;;;7.62;100.00
45357;BME280;31092;51.924;21.448;2023-05-23T03:11:07;100240.38;;;7.63;100.00
45357;BME280;31092;51.924;21.448;2023-05-23T03:13:33;100245.72;;;7.63;100.00
45357;BME280;31092;51.924;21.448;2023-05-23T03:15:58;100236.56;;;7.65;100.00
45357;BME280;31092;51.924;21.448;2023-05-23T03:18:24;100237.78;;;7.71;100.00
45357;BME280;31092;51.924;21.448;2023-05-23T03:20:49;100234.69;;;7.76;100.00
45357;BME280;31092;51.924;21.448;2023-05-23T03:23:14;100239.31;;;7.83;100.00
45357;BME280;31092;51.924;21.448;2023-05-23T03:25:41;100231.34;;;7.91;100.00
45357;BME280;31092;51.924;21.448;2023-05-23T03:28:07;100236.81;;;8.00;100.00
45357;BME280;31092;51.924;21.448;2023-05-23T03:30:32;100236.06;;;8.07;100.00
45357;BME280;31092;51.924;21.448;2023-05-23T03:32:57;100241.53;;;8.15;100.00
45357;BME280;31092;51.924;21.448;2023-05-23T03:35:23;100237.94;;;8.25;100.00
45357;BME280;31092;51.924;21.448;2023-05-23T03:37:48;100243.25;;;8.34;100.00
45357;BME280;31092;51.924;21.448;2023-05-23T03:40:13;100239.69;;;8.44;100.00
45357;BME280;31092;51.924;21.448;2023-05-23T03:42:39;100235.78;;;8.56;100.00
45357;BME280;31092;51.924;21.448;2023-05-23T03:45:04;100238.41;;;8.66;100.00
45357;BME280;31092;51.924;21.448;2023-05-23T03:47:30;100239.16;;;8.76;100.00
45357;BME280;31092;51.924;21.448;2023-05-23T03:49:55;100238.75;;;8.88;100.00
45357;BME280;31092;51.924;21.448;2023-05-23T03:52:21;100235.00;;;8.99;100.00
45357;BME280;31092;51.924;21.448;2023-05-23T03:54:46;100233.06;;;9.09;100.00
45357;BME280;31092;51.924;21.448;2023-05-23T03:57:12;100230.41;;;9.18;100.00
45357;BME280;31092;51.924;21.448;2023-05-23T03:59:37;100231.16;;;9.28;100.00
45357;BME280;31092;51.924;21.448;2023-05-23T04:02:02;100224.69;;;9.39;100.00
45357;BME280;31092;51.924;21.448;2023-05-23T04:04:28;100230.78;;;9.49;100.00
45357;BME280;31092;51.924;21.448;2023-05-23T04:06:53;100230.53;;;9.60;100.00
45357;BME280;31092;51.924;21.448;2023-05-23T04:09:19;100232.25;;;9.69;100.00
45357;BME280;31092;51.924;21.448;2023-05-23T04:11:45;100226.78;;;9.79;100.00
45357;BME280;31092;51.924;21.448;2023-05-23T04:14:11;100230.31;;;9.88;100.00
45357;BME280;31092;51.924;21.448;2023-05-23T04:16:37;100229.50;;;9.95;100.00
45357;BME280;31092;51.924;21.448;2023-05-23T04:19:05;100230.22;;;10.05;100.00
45357;BME280;31092;51.924;21.448;2023-05-23T04:21:30;100222.03;;;10.15;100.00
45357;BME280;31092;51.924;21.448;2023-05-23T04:23:56;100221.03;;;10.24;100.00
45357;BME280;31092;51.924;21.448;2023-05-23T04:26:21;100220.94;;;10.34;100.00
45357;BME280;31092;51.924;21.448;2023-05-23T04:28:47;100218.94;;;10.44;100.00
45357;BME280;31092;51.924;21.448;2023-05-23T04:31:13;100225.00;;;10.54;100.00
45357;BME280;31092;51.924;21.448;2023-05-23T04:33:38;100218.28;;;10.67;100.00
45357;BME280;31092;51.924;21.448;2023-05-23T04:36:03;100212.59;;;10.78;100.00
45357;BME280;31092;51.924;21.448;2023-05-23T04:38:29;100218.16;;;10.93;100.00
45357;BME280;31092;51.924;21.448;2023-05-23T04:40:54;100209.72;;;11.04;100.00
45357;BME280;31092;51.924;21.448;2023-05-23T04:43:21;100211.88;;;11.17;100.00
45357;BME280;31092;51.924;21.448;2023-05-23T04:45:50;100212.38;;;11.29;100.00
45357;BME280;31092;51.924;21.448;2023-05-23T04:48:18;100209.97;;;11.42;100.00
45357;BME280;31092;51.924;21.448;2023-05-23T04:50:45;100210.13;;;11.57;100.00
45357;BME280;31092;51.924;21.448;2023-05-23T04:53:11;100207.91;;;11.68;100.00
45357;BME280;31092;51.924;21.448;2023-05-23T04:55:37;100209.88;;;11.83;100.00
45357;BME280;31092;51.924;21.448;2023-05-23T04:58:02;100204.94;;;11.94;100.00
45357;BME280;31092;51.924;21.448;2023-05-23T05:00:28;100207.09;;;12.07;100.00
45357;BME280;31092;51.924;21.448;2023-05-23T05:02:54;100208.50;;;12.26;100.00
45357;BME280;31092;51.924;21.448;2023-05-23T05:05:19;100196.22;;;12.46;100.00
45357;BME280;31092;51.924;21.448;2023-05-23T05:07:45;100205.19;;;12.70;100.00
45357;BME280;31092;51.924;21.448;2023-05-23T05:10:12;100209.38;;;12.96;100.00
45357;BME280;31092;51.924;21.448;2023-05-23T05:12:51;100198.84;;;13.24;100.00
45357;BME280;31092;51.924;21.448;2023-05-23T05:15:17;100194.38;;;13.46;100.00
45357;BME280;31092;51.924;21.448;2023-05-23T05:17:54;100195.41;;;13.74;100.00
45357;BME280;31092;51.924;21.448;2023-05-23T05:20:20;100186.16;;;13.98;100.00
45357;BME280;31092;51.924;21.448;2023-05-23T05:22:46;100182.00;;;14.17;100.00
45357;BME280;31092;51.924;21.448;2023-05-23T05:25:11;100176.16;;;14.35;100.00
45357;BME280;31092;51.924;21.448;2023-05-23T05:27:42;100166.66;;;14.60;100.00
45357;BME280;31092;51.924;21.448;2023-05-23T05:30:20;100169.63;;;14.94;100.00
45357;BME280;31092;51.924;21.448;2023-05-23T05:32:45;100165.81;;;15.09;100.00
45357;BME280;31092;51.924;21.448;2023-05-23T05:35:11;100157.78;;;15.23;100.00
45357;BME280;31092;51.924;21.448;2023-05-23T05:38:00;100163.97;;;15.45;100.00
45357;BME280;31092;51.924;21.448;2023-05-23T05:40:28;100160.16;;;15.67;100.00
45357;BME280;31092;51.924;21.448;2023-05-23T05:42:54;100150.84;;;15.83;100.00
45357;BME280;31092;51.924;21.448;2023-05-23T05:45:19;100154.47;;;16.03;100.00
45357;BME280;31092;51.924;21.448;2023-05-23T05:47:45;100151.25;;;16.41;100.00
45357;BME280;31092;51.924;21.448;2023-05-23T05:50:11;100150.41;;;16.61;100.00
45357;BME280;31092;51.924;21.448;2023-05-23T05:52:36;100151.06;;;16.69;100.00
45357;BME280;31092;51.924;21.448;2023-05-23T05:55:09;100150.69;;;16.79;100.00
45357;BME280;31092;51.924;21.448;2023-05-23T05:57:38;100148.78;;;16.93;100.00
45357;BME280;31092;51.924;21.448;2023-05-23T06:00:07;100135.19;;;17.06;100.00
45357;BME280;31092;51.924;21.448;2023-05-23T06:02:38;100141.22;;;17.21;100.00
45357;BME280;31092;51.924;21.448;2023-05-23T06:05:04;100134.09;;;17.40;100.00
45357;BME280;31092;51.924;21.448;2023-05-23T06:07:32;100136.97;;;17.59;100.00
45357;BME280;31092;51.924;21.448;2023-05-23T06:09:57;100124.59;;;17.76;100.00
45357;BME280;31092;51.924;21.448;2023-05-23T06:12:23;100124.94;;;17.93;100.00
45357;BME280;31092;51.924;21.448;2023-05-23T06:14:48;100132.16;;;18.12;100.00
45357;BME280;31092;51.924;21.448;2023-05-23T06:17:14;100125.75;;;18.32;100.00
45357;BME280;31092;51.924;21.448;2023-05-23T06:19:39;100117.69;;;18.50;100.00
45357;BME280;31092;51.924;21.448;2023-05-23T06:22:04;100122.63;;;18.60;100.00
45357;BME280;31092;51.924;21.448;2023-05-23T06:24:30;100113.97;;;18.70;100.00
45357;BME280;31092;51.924;21.448;2023-05-23T06:26:55;100109.25;;;18.83;100.00
45357;BME280;31092;51.924;21.448;2023-05-23T06:29:20;100112.31;;;19.37;100.00
45357;BME280;31092;51.924;21.448;2023-05-23T06:31:49;100114.19;;;19.92;100.00
45357;BME280;31092;51.924;21.448;2023-05-23T06:34:18;100102.53;;;19.84;100.00
45357;BME280;31092;51.924;21.448;2023-05-23T06:36:43;100105.53;;;19.65;100.00
45357;BME280;31092;51.924;21.448;2023-05-23T06:39:11;100101.84;;;19.52;100.00
45357;BME280;31092;51.924;21.448;2023-05-23T06:41:37;100104.56;;;19.52;100.00
45357;BME280;31092;51.924;21.448;2023-05-23T06:44:02;100098.06;;;19.53;100.00
45357;BME280;31092;51.924;21.448;2023-05-23T06:46:28;100097.38;;;19.58;100.00
45357;BME280;31092;51.924;21.448;2023-05-23T06:48:53;100094.97;;;19.68;100.00
45357;BME280;31092;51.924;21.448;2023-05-23T06:51:19;100100.72;;;19.78;100.00
45357;BME280;31092;51.924;21.448;2023-05-23T06:53:44;100094.84;;;19.93;100.00
45357;BME280;31092;51.924;21.448;2023-05-23T06:56:09;100090.03;;;20.07;100.00
45357;BME280;31092;51.924;21.448;2023-05-23T06:58:35;100092.81;;;20.19;100.00
45357;BME280;31092;51.924;21.448;2023-05-23T07:01:00;100084.28;;;20.27;100.00
45357;BME280;31092;51.924;21.448;2023-05-23T07:03:26;100082.28;;;20.34;100.00
45357;BME280;31092;51.924;21.448;2023-05-23T07:05:51;100080.06;;;20.43;100.00
45357;BME280;31092;51.924;21.448;2023-05-23T07:08:17;100074.00;;;20.52;100.00
45357;BME280;31092;51.924;21.448;2023-05-23T07:10:42;100070.50;;;20.64;100.00
45357;BME280;31092;51.924;21.448;2023-05-23T07:13:07;100065.47;;;20.84;100.00
45357;BME280;31092;51.924;21.448;2023-05-23T07:15:33;100069.53;;;20.93;100.00
45357;BME280;31092;51.924;21.448;2023-05-23T07:17:58;100061.34;;;20.82;100.00
45357;BME280;31092;51.924;21.448;2023-05-23T07:20:24;100064.53;;;20.78;100.00
45357;BME280;31092;51.924;21.448;2023-05-23T07:22:49;100055.16;;;20.86;100.00
45357;BME280;31092;51.924;21.448;2023-05-23T07:25:16;100055.38;;;20.96;100.00
45357;BME280;31092;51.924;21.448;2023-05-23T07:27:41;100062.50;;;20.97;100.00
45357;BME280;31092;51.924;21.448;2023-05-23T07:30:06;100060.72;;;21.15;100.00
45357;BME280;31092;51.924;21.448;2023-05-23T07:32:34;100059.66;;;21.27;100.00
45357;BME280;31092;51.924;21.448;2023-05-23T07:34:59;100057.47;;;21.41;100.00
45357;BME280;31092;51.924;21.448;2023-05-23T07:37:24;100058.53;;;21.52;100.00
45357;BME280;31092;51.924;21.448;2023-05-23T07:39:51;100046.13;;;21.61;100.00
45357;BME280;31092;51.924;21.448;2023-05-23T07:42:17;100046.91;;;21.73;100.00
45357;BME280;31092;51.924;21.448;2023-05-23T07:44:42;100043.41;;;21.90;100.00
45357;BME280;31092;51.924;21.448;2023-05-23T07:47:07;100046.53;;;22.10;100.00
45357;BME280;31092;51.924;21.448;2023-05-23T07:49:33;100041.09;;;22.27;100.00
45357;BME280;31092;51.924;21.448;2023-05-23T07:51:59;100042.94;;;22.38;100.00
45357;BME280;31092;51.924;21.448;2023-05-23T07:54:25;100039.13;;;22.56;100.00
45357;BME280;31092;51.924;21.448;2023-05-23T07:56:51;100035.28;;;22.74;100.00
45357;BME280;31092;51.924;21.448;2023-05-23T07:59:16;100033.19;;;22.81;100.00
45357;BME280;31092;51.924;21.448;2023-05-23T08:01:42;100032.28;;;22.92;100.00
45357;BME280;31092;51.924;21.448;2023-05-23T08:04:08;100022.03;;;22.88;100.00
45357;BME280;31092;51.924;21.448;2023-05-23T08:06:34;100032.63;;;22.96;100.00
45357;BME280;31092;51.924;21.448;2023-05-23T08:08:59;100029.25;;;23.11;100.00
45357;BME280;31092;51.924;21.448;2023-05-23T08:11:25;100025.81;;;23.21;100.00
45357;BME280;31092;51.924;21.448;2023-05-23T08:13:51;100028.94;;;23.29;100.00
45357;BME280;31092;51.924;21.448;2023-05-23T08:16:16;100024.09;;;23.36;100.00
45357;BME280;31092;51.924;21.448;2023-05-23T08:18:42;100024.88;;;23.32;100.00
45357;BME280;31092;51.924;21.448;2023-05-23T08:21:07;100021.09;;;23.38;100.00
45357;BME280;31092;51.924;21.448;2023-05-23T08:23:32;100023.66;;;23.45;100.00
45357;BME280;31092;51.924;21.448;2023-05-23T08:26:01;100021.22;;;23.48;100.00
45357;BME280;31092;51.924;21.448;2023-05-23T08:28:26;100019.03;;;23.50;100.00
45357;BME280;31092;51.924;21.448;2023-05-23T08:30:52;100022.09;;;23.54;95.32
45357;BME280;31092;51.924;21.448;2023-05-23T08:33:18;100020.31;;;23.64;97.61
45357;BME280;31092;51.924;21.448;2023-05-23T08:35:43;100012.25;;;23.80;96.16
45357;BME280;31092;51.924;21.448;2023-05-23T08:38:08;100015.38;;;23.88;95.58
45357;BME280;31092;51.924;21.448;2023-05-23T08:40:34;100019.69;;;24.06;94.64
45357;BME280;31092;51.924;21.448;2023-05-23T08:43:00;100012.97;;;24.24;92.76
45357;BME280;31092;51.924;21.448;2023-05-23T08:45:26;100011.22;;;24.40;93.40
45357;BME280;31092;51.924;21.448;2023-05-23T08:47:53;100009.34;;;24.46;93.24
45357;BME280;31092;51.924;21.448;2023-05-23T08:50:19;100011.78;;;24.42;91.05
45357;BME280;31092;51.924;21.448;2023-05-23T08:52:55;100003.13;;;24.60;90.82
45357;BME280;31092;51.924;21.448;2023-05-23T08:55:23;100015.16;;;24.54;88.73
45357;BME280;31092;51.924;21.448;2023-05-23T08:57:49;100009.50;;;24.66;85.71
45357;BME280;31092;51.924;21.448;2023-05-23T09:00:16;100001.84;;;24.73;84.05
45357;BME280;31092;51.924;21.448;2023-05-23T09:02:42;99991.34;;;24.70;83.07
45357;BME280;31092;51.924;21.448;2023-05-23T09:05:08;99997.69;;;24.71;83.61
45357;BME280;31092;51.924;21.448;2023-05-23T09:07:36;99995.81;;;24.76;84.66
45357;BME280;31092;51.924;21.448;2023-05-23T09:10:05;99989.22;;;24.82;85.26
45357;BME280;31092;51.924;21.448;2023-05-23T09:12:32;99987.34;;;24.93;85.82
45357;BME280;31092;51.924;21.448;2023-05-23T09:14:57;99990.16;;;24.98;85.89
45357;BME280;31092;51.924;21.448;2023-05-23T09:17:23;99995.72;;;25.08;86.44
45357;BME280;31092;51.924;21.448;2023-05-23T09:19:48;99981.16;;;25.18;87.87
45357;BME280;31092;51.924;21.448;2023-05-23T09:22:13;99976.03;;;25.37;88.51
45357;BME280;31092;51.924;21.448;2023-05-23T09:24:39;99978.53;;;25.49;87.12
45357;BME280;31092;51.924;21.448;2023-05-23T09:27:05;99980.44;;;25.38;85.65
45357;BME280;31092;51.924;21.448;2023-05-23T09:29:31;99973.81;;;25.34;84.21
45357;BME280;31092;51.924;21.448;2023-05-23T09:32:09;99979.31;;;25.34;83.52
45357;BME280;31092;51.924;21.448;2023-05-23T09:34:34;99977.09;;;25.31;82.11
45357;BME280;31092;51.924;21.448;2023-05-23T09:36:59;99978.22;;;25.35;82.44
45357;BME280;31092;51.924;21.448;2023-05-23T09:39:25;99976.22;;;25.20;80.19
45357;BME280;31092;51.924;21.448;2023-05-23T09:41:50;99974.06;;;25.32;83.21
45357;BME280;31092;51.924;21.448;2023-05-23T09:44:16;99981.25;;;25.39;80.90
45357;BME280;31092;51.924;21.448;2023-05-23T09:46:46;99972.19;;;25.48;83.96
45357;BME280;31092;51.924;21.448;2023-05-23T09:49:17;99973.03;;;25.49;82.99
45357;BME280;31092;51.924;21.448;2023-05-23T09:51:43;99980.16;;;25.35;80.95
45357;BME280;31092;51.924;21.448;2023-05-23T09:54:08;99970.91;;;25.08;79.01
45357;BME280;31092;51.924;21.448;2023-05-23T09:56:34;99965.91;;;24.58;80.24
45357;BME280;31092;51.924;21.448;2023-05-23T09:59:01;99977.22;;;24.29;82.41
45357;BME280;31092;51.924;21.448;2023-05-23T10:01:27;99977.53;;;24.33;81.77
45357;BME280;31092;51.924;21.448;2023-05-23T10:03:54;99971.13;;;24.54;82.92
45357;BME280;31092;51.924;21.448;2023-05-23T10:06:30;99958.66;;;24.84;83.07
45357;BME280;31092;51.924;21.448;2023-05-23T10:09:03;99965.31;;;24.93;82.79
45357;BME280;31092;51.924;21.448;2023-05-23T10:14:00;99969.38;;;25.28;81.51
45357;BME280;31092;51.924;21.448;2023-05-23T10:16:32;99970.50;;;25.42;82.68
45357;BME280;31092;51.924;21.448;2023-05-23T10:19:00;99955.69;;;25.64;81.75
45357;BME280;31092;51.924;21.448;2023-05-23T10:21:32;99962.84;;;25.65;80.39
45357;BME280;31092;51.924;21.448;2023-05-23T10:24:00;99966.69;;;25.53;78.25
45357;BME280;31092;51.924;21.448;2023-05-23T10:26:27;99953.97;;;25.37;77.03
45357;BME280;31092;51.924;21.448;2023-05-23T10:28:52;99953.16;;;25.37;77.21
45357;BME280;31092;51.924;21.448;2023-05-23T10:31:19;99952.56;;;25.35;76.81
45357;BME280;31092;51.924;21.448;2023-05-23T10:33:46;99945.44;;;25.49;78.14
45357;BME280;31092;51.924;21.448;2023-05-23T10:36:24;99955.69;;;25.59;77.85
45357;BME280;31092;51.924;21.448;2023-05-23T10:38:58;99951.75;;;25.34;76.60
45357;BME280;31092;51.924;21.448;2023-05-23T10:41:28;99952.28;;;25.36;77.67
45357;BME280;31092;51.924;21.448;2023-05-23T10:44:05;99948.41;;;25.32;77.48
45357;BME280;31092;51.924;21.448;2023-05-23T10:49:17;99943.97;;;25.16;78.27
45357;BME280;31092;51.924;21.448;2023-05-23T10:51:43;99960.25;;;24.75;76.84
45357;BME280;31092;51.924;21.448;2023-05-23T10:54:11;99948.78;;;24.51;79.27
45357;BME280;31092;51.924;21.448;2023-05-23T10:56:36;99963.47;;;24.29;79.04
45357;BME280;31092;51.924;21.448;2023-05-23T10:59:03;99955.69;;;24.53;81.04
45357;BME280;31092;51.924;21.448;2023-05-23T11:01:30;99951.75;;;24.81;79.36
45357;BME280;31092;51.924;21.448;2023-05-23T11:03:55;99951.06;;;25.06;77.83
45357;BME280;31092;51.924;21.448;2023-05-23T11:06:42;99950.06;;;25.28;80.73
45357;BME280;31092;51.924;21.448;2023-05-23T11:09:13;99938.78;;;25.29;79.79
45357;BME280;31092;51.924;21.448;2023-05-23T11:11:58;99932.53;;;24.97;78.88
45357;BME280;31092;51.924;21.448;2023-05-23T11:19:37;99923.94;;;25.61;80.36
45357;BME280;31092;51.924;21.448;2023-05-23T11:22:03;99920.88;;;25.37;77.33
45357;BME280;31092;51.924;21.448;2023-05-23T11:27:15;99918.69;;;24.76;78.37
45357;BME280;31092;51.924;21.448;2023-05-23T11:29:40;99912.03;;;24.72;79.87
45357;BME280;31092;51.924;21.448;2023-05-23T11:32:12;99911.84;;;24.84;80.34
45357;BME280;31092;51.924;21.448;2023-05-23T11:34:40;99916.63;;;25.09;81.50
45357;BME280;31092;51.924;21.448;2023-05-23T11:37:05;99904.91;;;25.49;83.51
45357;BME280;31092;51.924;21.448;2023-05-23T11:39:31;99905.22;;;25.73;81.39
45357;BME280;31092;51.924;21.448;2023-05-23T11:44:25;99898.63;;;25.69;79.29
45357;BME280;31092;51.924;21.448;2023-05-23T11:47:00;99898.94;;;25.83;80.00
45357;BME280;31092;51.924;21.448;2023-05-23T11:49:29;99898.38;;;25.91;76.45
45357;BME280;31092;51.924;21.448;2023-05-23T11:51:55;99894.78;;;25.86;76.63
45357;BME280;31092;51.924;21.448;2023-05-23T11:54:24;99893.63;;;25.71;77.19
45357;BME280;31092;51.924;21.448;2023-05-23T11:56:50;99887.84;;;25.78;77.39
45357;BME280;31092;51.924;21.448;2023-05-23T11:59:15;99887.03;;;25.77;76.45
45357;BME280;31092;51.924;21.448;2023-05-23T12:01:41;99888.66;;;25.68;75.93
45357;BME280;31092;51.924;21.448;2023-05-23T12:04:10;99889.53;;;25.79;78.29
45357;BME280;31092;51.924;21.448;2023-05-23T12:06:37;99891.47;;;25.84;75.70
45357;BME280;31092;51.924;21.448;2023-05-23T12:09:02;99897.81;;;25.84;74.16
45357;BME280;31092;51.924;21.448;2023-05-23T12:11:30;99889.78;;;25.62;70.12
45357;BME280;31092;51.924;21.448;2023-05-23T12:13:55;99880.38;;;25.48;70.56
45357;BME280;31092;51.924;21.448;2023-05-23T12:16:21;99886.72;;;25.53;72.03
45357;BME280;31092;51.924;21.448;2023-05-23T12:18:47;99882.88;;;25.60;72.93
45357;BME280;31092;51.924;21.448;2023-05-23T12:21:13;99879.56;;;25.58;71.02
45357;BME280;31092;51.924;21.448;2023-05-23T12:23:38;99874.88;;;25.53;70.28
45357;BME280;31092;51.924;21.448;2023-05-23T12:26:04;99871.84;;;25.54;72.95
45357;BME280;31092;51.924;21.448;2023-05-23T12:28:37;99871.25;;;25.42;71.02
45357;BME280;31092;51.924;21.448;2023-05-23T12:31:15;99875.34;;;25.19;71.88
45357;BME280;31092;51.924;21.448;2023-05-23T12:33:41;99877.72;;;24.95;73.39
45357;BME280;31092;51.924;21.448;2023-05-23T12:36:25;99882.66;;;24.93;74.44
45357;BME280;31092;51.924;21.448;2023-05-23T12:38:51;99862.31;;;24.99;73.68
45357;BME280;31092;51.924;21.448;2023-05-23T12:41:17;99860.38;;;25.00;73.14
45357;BME280;31092;51.924;21.448;2023-05-23T12:43:52;99864.31;;;25.14;74.63
45357;BME280;31092;51.924;21.448;2023-05-23T12:46:18;99868.47;;;25.32;74.23
45357;BME280;31092;51.924;21.448;2023-05-23T12:48:43;99869.31;;;25.32;71.31
45357;BME280;31092;51.924;21.448;2023-05-23T12:51:08;99864.09;;;25.46;73.35
45357;BME280;31092;51.924;21.448;2023-05-23T12:53:34;99859.69;;;25.50;72.06
45357;BME280;31092;51.924;21.448;2023-05-23T12:56:00;99859.16;;;25.48;70.03